Latest Weather Observations for Casino

IDN60801

Issued at 6:33 pm EST Monday 29 August 2016 (issued every 30 minutes, with the page automatically refreshed every 10 minutes)

About weather observations | Map of weather stations | Latest weather observations for NSW | Other Formats
Station Details ID: 058208 Name: CASINO AIRPORT AWS Lat: -28.88 Lon: 153.06 Height: 20.9 m
Data from the previous 72 hours. | See also: Recent months at Casino
Date/Time
EST
Temp
°C
App
Temp
°C
Dew
Point
°C
Rel
Hum
%
Delta-T
°C
Wind Press
QNH
hPa
Press
MSL
hPa
Rain since
9am
mm
Dir  Spd
km/h
Gust
km/h
Spd
kts
Gust
kts
29/06:30pm 15.1 13.3 10.7 75 2.3 E 11 15 6 8 1025.6 1025.6 0.0
29/06:00pm 16.6 15.3 12.4 76 2.3 ESE 11 15 6 8 1025.4 1025.4 0.0
29/05:30pm 17.6 15.3 11.9 69 3.1 ESE 15 19 8 10 1024.9 1024.9 0.0
29/05:00pm 19.8 16.8 11.8 60 4.4 ESE 19 24 10 13 1024.5 1024.5 0.0
29/04:30pm 21.3 18.2 11.6 54 5.4 ESE 19 26 10 14 1024.4 1024.4 0.0
29/04:00pm 22.7 20.8 7.7 38 7.8 ESE 7 11 4 6 1024.3 1024.3 0.0
29/03:30pm 23.1 21.2 7.6 37 8.1 ENE 7 13 4 7 1023.9 1023.9 0.0
29/03:00pm 22.9 20.3 6.2 34 8.5 SSE 9 15 5 8 1024.0 1024.0 0.0
29/02:30pm 23.3 21.6 7.4 36 8.3 E 6 13 3 7 1024.2 1024.2 0.0
29/02:00pm 22.9 20.0 6.6 35 8.3 ENE 11 15 6 8 1024.2 1024.2 0.0
29/01:30pm 22.6 21.1 9.0 42 7.3 ENE 7 15 4 8 1024.3 1024.3 0.0
29/01:00pm 22.5 21.1 9.0 42 7.2 E 6 11 3 6 1024.6 1024.6 0.0
29/12:30pm 22.0 20.7 9.9 46 6.6 N 7 13 4 7 1024.9 1024.9 0.0
29/12:00pm 21.5 19.9 10.3 49 6.1 E 9 15 5 8 1025.6 1025.6 0.0
29/11:30am 20.3 18.5 9.5 50 5.8 SE 9 13 5 7 1025.9 1025.9 0.0
29/11:00am 19.5 18.3 9.4 52 5.3 WNW 6 11 3 6 1026.4 1026.4 0.0
29/10:30am 19.4 18.1 9.9 54 5.1 W 7 11 4 6 1026.7 1026.7 0.0
29/10:00am 17.3 15.1 7.9 54 4.7 SW 9 11 5 6 1026.5 1026.5 0.0
29/09:30am 16.9 16.1 9.6 62 3.8 SW 4 9 2 5 1026.7 1026.7 0.0
29/09:00am 15.4 14.1 9.1 66 3.2 NNW 6 7 3 4 1026.9 1026.9 0.0
29/08:30am 13.3 11.8 9.0 75 2.2 W 7 9 4 5 1026.9 1026.9 0.0
29/08:00am 11.2 9.6 8.2 82 1.5 WNW 6 9 3 5 1026.7 1026.7 0.0
29/07:30am 9.7 8.9 8.3 91 0.7 NNW 2 7 1 4 1026.1 1026.1 0.0
29/07:00am 7.7 7.0 6.8 94 0.4 CALM 0 0 0 0 1025.6 1025.6 0.0
29/06:30am 6.1 3.9 5.1 93 0.4 NW 6 7 3 4 1025.2 1025.2 0.0
29/06:00am 5.6 3.3 4.6 93 0.4 WNW 6 9 3 5 1024.9 1024.9 0.0
29/05:30am 5.1 3.8 3.9 92 0.5 CALM 0 0 0 0 1024.3 1024.3 0.0
29/05:00am 5.5 3.8 4.2 91 0.5 W 2 7 1 4 1023.8 1023.8 0.0
29/04:30am 6.3 3.9 5.3 93 0.4 WSW 7 9 4 5 1023.6 1023.6 0.0
29/04:00am 6.4 4.1 5.0 91 0.6 W 6 9 3 5 1023.1 1023.1 0.0
29/03:30am 7.4 5.2 6.2 92 0.5 W 7 9 4 5 1023.0 1023.0 0.0
29/03:00am 6.9 4.7 5.4 90 0.7 WSW 6 7 3 4 1023.1 1023.1 0.0
29/02:30am 7.4 6.4 5.5 88 0.8 CALM 0 7 0 4 1023.1 1023.1 0.0
29/02:00am 8.7 6.3 7.2 90 0.7 WNW 9 11 5 6 1023.3 1023.3 0.0
29/01:30am 8.8 6.5 7.4 91 0.7 WNW 9 11 5 6 1023.5 1023.5 0.0
29/01:00am 9.0 6.8 7.8 92 0.6 WNW 9 11 5 6 1023.4 1023.4 0.0
29/12:30am 8.6 6.9 7.4 92 0.6 W 6 7 3 4 1023.4 1023.4 0.0
29/12:00am 8.4 6.6 7.0 91 0.6 WNW 6 7 3 4 1023.3 1023.3 0.0
 
Date/Time
EST
Temp
°C
App
Temp
°C
Dew
Point
°C
Rel
Hum
%
Delta-T
°C
Wind Press
QNH
hPa
Press
MSL
hPa
Rain since
9am
mm
Dir  Spd
km/h
Gust
km/h
Spd
kts
Gust
kts
28/11:30pm 9.4 7.8 8.2 92 0.6 NW 6 7 3 4 1023.2 1023.2 0.0
28/11:00pm 9.2 8.7 8.0 92 0.6 CALM 0 0 0 0 1023.1 1023.1 0.0
28/10:30pm 9.5 7.9 8.1 91 0.7 WSW 6 6 3 3 1023.0 1023.0 0.0
28/10:00pm 10.3 10.0 8.7 90 0.8 CALM 0 6 0 3 1022.9 1022.9 0.0
28/09:30pm 10.9 10.0 9.2 89 0.8 SW 4 6 2 3 1022.7 1022.7 0.0
28/09:00pm 10.8 10.4 8.4 85 1.2 CALM 0 0 0 0 1022.5 1022.5 0.0
28/08:30pm 12.3 11.1 9.7 84 1.3 SSE 6 7 3 4 1022.5 1022.5 0.0
28/08:00pm 13.3 11.8 10.5 83 1.5 ESE 9 11 5 6 1022.2 1022.2 0.0
28/07:30pm 13.1 11.5 10.1 82 1.5 E 9 13 5 7 1021.9 1021.9 0.0
28/07:00pm 13.4 12.1 9.8 79 1.8 E 7 9 4 5 1021.8 1021.8 0.0
28/06:30pm 13.5 11.1 8.8 73 2.4 E 11 13 6 7 1021.4 1021.4 0.0
28/06:00pm 14.6 11.1 7.4 62 3.5 E 15 20 8 11 1021.4 1021.4 0.0
28/05:30pm 16.9 14.4 6.7 51 5.0 E 9 9 5 5 1020.9 1020.9 0.0
28/05:00pm 20.0 17.9 6.7 42 6.7 ENE 7 11 4 6 1020.7 1020.7 0.0
28/04:30pm 21.6 19.2 4.2 32 8.5 NNE 6 9 3 5 1020.5 1020.5 0.0
28/04:00pm 22.1 19.5 4.2 31 8.7 NNE 7 11 4 6 1020.3 1020.3 0.0
28/03:30pm 22.2 19.1 3.8 30 8.9 NNE 9 15 5 8 1020.2 1020.2 0.0
28/03:00pm 22.6 19.7 4.6 31 8.8 NNW 9 15 5 8 1020.4 1020.4 0.0
28/02:30pm 22.8 20.2 4.3 30 9.1 N 7 15 4 8 1020.7 1020.7 0.0
28/02:00pm 22.5 19.6 2.6 27 9.4 SW 7 13 4 7 1021.0 1021.0 0.0
28/01:30pm 22.0 18.7 2.7 28 9.1 NW 9 17 5 9 1021.2 1021.2 0.0
28/01:00pm 22.4 19.2 3.0 28 9.2 NNW 9 15 5 8 1021.7 1021.7 0.0
28/12:30pm 21.3 19.1 6.0 37 7.7 S 7 15 4 8 1022.1 1022.1 0.0
28/12:00pm 20.8 17.9 4.4 34 7.9 WNW 9 13 5 7 1022.7 1022.7 0.0
28/11:30am 20.3 17.7 4.4 35 7.7 NE 7 15 4 8 1023.2 1023.2 0.0
28/11:00am 20.1 18.0 6.5 41 6.8 NNE 7 11 4 6 1023.5 1023.5 0.0
28/10:30am 18.8 16.7 8.2 50 5.5 WSW 9 13 5 7 1024.0 1024.0 0.0
28/10:00am 18.0 15.4 9.4 57 4.5 WNW 13 19 7 10 1024.4 1024.4 0.0
28/09:30am 16.7 14.4 9.1 61 3.9 NW 11 15 6 8 1024.4 1024.4 0.0
28/09:00am 15.1 12.4 9.0 67 3.1 NW 13 17 7 9 1024.7 1024.7 0.0
28/08:30am 13.2 10.4 8.7 74 2.3 NW 13 15 7 8 1024.8 1024.8 0.0
28/08:00am 12.2 9.9 9.0 81 1.6 NW 11 13 6 7 1024.6 1024.6 0.0
28/07:30am 10.4 7.8 7.8 84 1.3 NW 11 15 6 8 1024.5 1024.5 0.0
28/07:00am 8.8 6.1 7.3 90 0.7 NW 11 13 6 7 1024.1 1024.1 0.0
28/06:30am 7.4 4.4 6.2 92 0.5 WNW 11 15 6 8 1023.4 1023.4 0.0
28/06:00am 7.1 4.1 5.9 92 0.5 NW 11 15 6 8 1023.0 1023.0 0.0
28/05:30am 6.5 3.7 5.3 92 0.5 WNW 9 11 5 6 1022.8 1022.8 0.0
28/05:00am 6.8 4.1 5.6 92 0.5 WNW 9 15 5 8 1022.6 1022.6 0.0
28/04:30am 7.4 4.8 6.2 92 0.5 WNW 9 13 5 7 1022.4 1022.4 0.0
28/04:00am 7.4 5.2 6.0 91 0.6 WNW 7 11 4 6 1022.2 1022.2 0.0
28/03:30am 7.7 5.1 6.2 90 0.7 WNW 9 11 5 6 1022.1 1022.1 0.0
28/03:00am 8.1 5.2 6.6 90 0.7 WNW 11 17 6 9 1021.9 1021.9 0.0
28/02:30am 8.1 5.2 6.6 90 0.7 WNW 11 13 6 7 1022.1 1022.1 0.0
28/02:00am 8.5 5.7 6.8 89 0.8 W 11 13 6 7 1022.2 1022.2 0.0
28/01:30am 8.8 6.4 7.1 89 0.8 WNW 9 11 5 6 1022.4 1022.4 0.0
28/01:00am 8.7 5.9 7.0 89 0.8 NW 11 15 6 8 1022.3 1022.3 0.0
28/12:30am 8.8 6.0 7.1 89 0.8 WNW 11 13 6 7 1022.4 1022.4 0.0
28/12:00am 9.0 7.0 7.3 89 0.8 WNW 7 11 4 6 1022.3 1022.3 0.0
 
Date/Time
EST
Temp
°C
App
Temp
°C
Dew
Point
°C
Rel
Hum
%
Delta-T
°C
Wind Press
QNH
hPa
Press
MSL
hPa
Rain since
9am
mm
Dir  Spd
km/h
Gust
km/h
Spd
kts
Gust
kts
27/11:30pm 8.7 6.6 6.7 87 0.9 WNW 7 9 4 5 1022.2 1022.2 0.0
27/11:00pm 9.1 7.3 7.1 87 0.9 NW 6 9 3 5 1022.3 1022.3 0.0
27/10:30pm 10.4 8.3 8.3 87 1.0 W 9 13 5 7 1022.2 1022.2 0.0
27/10:00pm 9.9 9.4 8.0 88 0.9 CALM 0 0 0 0 1022.2 1022.2 0.0
27/09:30pm 10.3 9.6 8.6 89 0.8 W 2 6 1 3 1022.2 1022.2 0.0
27/09:00pm 10.5 8.9 8.6 88 0.9 W 7 9 4 5 1022.2 1022.2 0.0
27/08:30pm 10.3 8.8 8.4 88 0.9 W 6 7 3 4 1022.0 1022.0 0.0
27/08:00pm 10.2 8.4 7.8 85 1.2 WSW 7 9 4 5 1021.5 1021.5 0.0
27/07:30pm 11.5 11.3 9.2 86 1.2 CALM 0 0 0 0 1021.4 1021.4 0.0
27/07:00pm 12.2 12.1 9.4 83 1.4 CALM 0 0 0 0 1020.9 1020.9 0.0
27/06:30pm 12.5 12.1 8.4 76 2.0 CALM 0 0 0 0 1020.7 1020.7 0.0
27/06:00pm 13.7 12.6 8.5 71 2.6 SE 4 7 2 4 1020.2 1020.2 0.0
27/05:30pm 15.7 14.1 8.2 61 3.8 SE 6 11 3 6 1019.8 1019.7 0.0
27/05:00pm 17.6 15.0 7.9 53 4.9 SE 11 15 6 8 1019.5 1019.4 0.0
27/04:30pm 18.0 14.0 6.8 48 5.6 SSE 17 26 9 14 1019.1 1019.0 0.0
27/04:00pm 18.9 15.4 7.4 47 5.8 S 15 20 8 11 1018.8 1018.7 0.0
27/03:30pm 20.3 16.7 6.6 41 6.9 SSW 15 26 8 14 1018.6 1018.5 0.0
27/03:00pm 19.4 15.4 6.5 43 6.4 SSW 17 24 9 13 1018.6 1018.5 0.0
27/02:30pm 19.3 15.2 6.4 43 6.4 S 17 20 9 11 1018.7 1018.6 0.0
27/02:00pm 19.0 15.9 7.1 46 6.0 SSW 13 20 7 11 1018.8 1018.7 0.0
27/01:30pm 18.4 14.8 6.6 46 5.9 S 15 24 8 13 1018.8 1018.7 0.0
27/01:00pm 18.0 14.0 6.5 47 5.7 S 17 24 9 13 1019.0 1018.9 0.0
27/12:30pm 18.9 15.2 6.4 44 6.2 SSW 15 28 8 15 1019.3 1019.2 0.0
27/12:00pm 17.9 14.1 5.8 45 5.9 S 15 24 8 13 1019.7 1019.6 0.0
27/11:30am 17.2 13.8 6.1 48 5.4 SSW 13 22 7 12 1019.9 1019.8 0.0
27/11:00am 17.9 14.2 6.4 47 5.7 SSW 15 22 8 12 1020.3 1020.3 0.0
27/10:30am 17.3 14.3 5.9 47 5.6 SSW 11 20 6 11 1020.3 1020.3 0.0
27/10:00am 17.5 14.1 7.5 52 5.0 S 15 22 8 12 1020.6 1020.6 0.0
27/09:30am 15.6 13.1 6.6 55 4.4 WSW 9 13 5 7 1020.6 1020.6 0.0
27/09:00am 14.7 12.4 7.5 62 3.5 WNW 9 13 5 7 1020.9 1020.9 0.0
27/08:30am 13.5 11.2 7.3 66 3.0 NW 9 13 5 7 1020.8 1020.8 0.0
27/08:00am 11.8 8.9 6.7 71 2.4 NW 11 13 6 7 1020.6 1020.6 0.0
27/07:30am 10.3 7.0 6.5 77 1.8 WNW 13 17 7 9 1020.2 1020.2 0.0
27/07:00am 9.1 5.4 6.5 84 1.2 NW 15 17 8 9 1019.9 1019.8 0.0
27/06:30am 7.4 4.4 5.9 90 0.7 WNW 11 13 6 7 1019.6 1019.5 0.0
27/06:00am 7.0 4.3 5.5 90 0.7 W 9 11 5 6 1019.5 1019.4 0.0
27/05:30am 5.9 3.1 3.4 84 1.0 WNW 7 9 4 5 1019.5 1019.4 0.0
27/05:00am 7.6 4.8 5.1 84 1.1 WNW 9 13 5 7 1019.3 1019.2 0.0
27/04:30am 6.9 4.5 5.2 89 0.7 NNW 7 7 4 4 1019.1 1019.0 0.0
27/04:00am 7.0 5.9 5.0 87 0.9 CALM 0 7 0 4 1018.6 1018.5 0.0
27/03:30am 7.5 6.0 5.0 84 1.1 W 2 7 1 4 1018.4 1018.3 0.0
27/03:00am 8.3 6.0 5.6 83 1.2 N 7 9 4 5 1018.3 1018.2 0.0
27/02:30am 9.7 7.4 5.5 75 1.9 W 7 11 4 6 1018.3 1018.2 0.0
27/02:00am 9.8 7.7 6.0 77 1.7 W 6 7 3 4 1018.3 1018.2 0.0
27/01:30am 10.4 7.9 6.4 76 1.9 WSW 9 11 5 6 1018.5 1018.4 0.0
27/01:00am 10.0 8.0 7.3 83 1.3 NW 7 9 4 5 1018.7 1018.6 0.0
27/12:30am 9.6 8.9 7.0 84 1.2 CALM 0 7 0 4 1018.6 1018.5 0.0
27/12:00am 9.1 6.9 6.0 81 1.4 N 7 7 4 4 1018.8 1018.7 0.0
 
Date/Time
EST
Temp
°C
App
Temp
°C
Dew
Point
°C
Rel
Hum
%
Delta-T
°C
Wind Press
QNH
hPa
Press
MSL
hPa
Rain since
9am
mm
Dir  Spd
km/h
Gust
km/h
Spd
kts
Gust
kts
26/11:30pm 10.8 8.3 4.5 65 2.8 WSW 7 11 4 6 1018.5 1018.4 0.0
26/11:00pm 10.3 7.4 4.5 67 2.6 WSW 9 13 5 7 1018.0 1017.9 0.0
26/10:30pm 10.5 7.6 4.9 68 2.5 SW 9 13 5 7 1018.0 1017.9 0.0
26/10:00pm 11.8 8.3 5.4 65 3.0 SSW 13 20 7 11 1017.8 1017.7 0.0
26/09:30pm 11.7 8.3 6.0 68 2.7 SW 13 19 7 10 1018.0 1017.9 0.0
26/09:00pm 11.9 9.1 6.8 71 2.4 SW 11 15 6 8 1018.2 1018.1 0.0
26/08:30pm 12.3 9.7 7.6 73 2.3 SW 11 15 6 8 1018.1 1018.0 0.0
26/08:00pm 11.6 9.3 7.5 76 2.0 SW 9 13 5 7 1017.8 1017.7 0.0
26/07:30pm 11.2 9.1 8.2 82 1.5 SSW 9 11 5 6 1017.6 1017.5 0.0
26/07:00pm 10.7 10.2 7.9 83 1.4 CALM 0 2 0 1 1017.5 1017.4 0.0

Other Formats:

Comma delimited format used in spreadsheet applications
http://www.bom.gov.au/fwo/IDN60801/IDN60801.94573.axf

JavaScript Object Notation format (JSON) in row-major order
http://www.bom.gov.au/fwo/IDN60801/IDN60801.94573.json